Time;durP1;ratioP1;P1;durP2;ratioP2;P2;SDS_P1;SDS_P2;PMS_P1;PMS_P2;Temp;Humidity;BMP_temperature;BMP_pressure;BME280_temperature;BME280_humidity;BME280_pressure;Samples;Min_cycle;Max_cycle;Signal;HPM_P1;HPM_P2
2022/07/22 00:04:14;;;;;;;6.80;4.10;;;;;;;23.04;46.16;99068.26;234355;1199;140323;-61
2022/07/22 00:09:18;;;;;;;8.70;3.80;;;;;;;22.99;46.40;99067.80;234098;1199;140101;-62
2022/07/22 00:14:21;;;;;;;9.20;3.90;;;;;;;22.96;46.55;99072.11;234194;1199;139268;-61
2022/07/22 00:19:24;;;;;;;7.40;3.90;;;;;;;22.92;46.69;99060.37;234176;1199;138980;-59
2022/07/22 00:24:27;;;;;;;7.10;3.30;;;;;;;22.87;46.90;99057.80;234179;1199;139493;-60
2022/07/22 00:29:30;;;;;;;5.10;3.60;;;;;;;22.82;46.93;99061.67;234202;1199;139746;-62
2022/07/22 00:34:33;;;;;;;6.40;3.60;;;;;;;22.78;46.92;99079.55;234297;1199;138887;-61
2022/07/22 00:39:36;;;;;;;6.20;3.20;;;;;;;22.80;46.99;99078.36;234178;1199;139087;-62
2022/07/22 00:44:40;;;;;;;5.90;3.40;;;;;;;22.87;47.13;99067.02;233856;1199;139147;-63
2022/07/22 00:49:43;;;;;;;8.70;3.50;;;;;;;22.87;47.20;99068.84;234220;1199;139704;-62
2022/07/22 00:54:46;;;;;;;8.90;3.30;;;;;;;22.83;47.26;99068.11;234191;1199;139320;-60
2022/07/22 00:59:49;;;;;;;5.80;3.20;;;;;;;22.78;47.31;99064.90;234198;1199;139304;-62
2022/07/22 01:04:52;;;;;;;5.00;3.40;;;;;;;22.73;47.57;99067.08;234369;1198;140144;-63
2022/07/22 01:09:54;;;;;;;5.70;3.50;;;;;;;22.66;47.64;99063.13;234147;1199;139404;-60
2022/07/22 01:14:57;;;;;;;7.60;2.80;;;;;;;22.60;47.70;99069.94;234216;1199;140038;-60
2022/07/22 01:20:04;;;;;;;7.90;4.00;;;;;;;22.55;47.79;99074.33;234108;1199;139246;-60
2022/07/22 01:25:07;;;;;;;6.80;3.50;;;;;;;22.48;47.90;99076.52;234171;1199;139159;-60
2022/07/22 01:30:11;;;;;;;6.70;3.50;;;;;;;22.48;48.09;99077.31;234187;1199;140999;-60
2022/07/22 01:35:13;;;;;;;8.30;3.90;;;;;;;22.49;48.24;99073.15;234249;1199;139099;-59
2022/07/22 01:40:17;;;;;;;10.60;4.30;;;;;;;22.47;48.30;99072.90;234149;1199;140603;-62
2022/07/22 01:45:20;;;;;;;6.50;3.60;;;;;;;22.46;48.38;99072.57;234096;1199;139509;-62
2022/07/22 01:50:24;;;;;;;6.40;3.40;;;;;;;22.42;48.41;99071.15;234135;1198;139023;-62
2022/07/22 01:55:27;;;;;;;8.70;3.30;;;;;;;22.36;48.46;99064.07;234188;1199;139003;-62
2022/07/22 02:00:31;;;;;;;7.70;3.30;;;;;;;22.32;48.58;99057.48;234192;1199;140034;-61
2022/07/22 02:05:35;;;;;;;8.00;3.50;;;;;;;22.26;48.64;99054.98;234223;1199;138984;-63
2022/07/22 02:10:41;;;;;;;9.70;3.60;;;;;;;22.19;48.83;99051.15;234247;1199;140175;-62
2022/07/22 02:15:44;;;;;;;7.80;3.70;;;;;;;22.11;48.84;99058.70;234186;1199;139516;-61
2022/07/22 02:20:47;;;;;;;4.90;3.20;;;;;;;22.01;49.09;99059.67;234157;1199;138946;-62
2022/07/22 02:25:50;;;;;;;9.90;3.40;;;;;;;21.92;49.25;99059.90;234183;1199;139295;-62
2022/07/22 02:30:53;;;;;;;7.70;3.50;;;;;;;21.83;49.36;99063.34;234264;1199;139484;-61
2022/07/22 02:35:56;;;;;;;9.20;3.30;;;;;;;21.75;49.46;99081.45;234292;1199;141506;-63
2022/07/22 02:40:59;;;;;;;9.00;4.20;;;;;;;21.77;49.85;99092.05;234156;1199;139757;-60
2022/07/22 02:46:03;;;;;;;9.70;4.50;;;;;;;21.91;49.84;99090.30;234233;1199;139149;-59
2022/07/22 02:51:07;;;;;;;8.20;4.10;;;;;;;22.04;49.85;99078.32;234239;1199;140009;-60
2022/07/22 02:56:11;;;;;;;6.50;4.00;;;;;;;22.07;49.85;99072.73;234025;1199;139269;-59
2022/07/22 03:01:14;;;;;;;10.10;3.80;;;;;;;22.04;49.85;99066.39;234133;1198;140208;-59
2022/07/22 03:06:27;;;;;;;15.30;4.00;;;;;;;22.00;49.92;99078.38;234226;1199;139447;-61
2022/07/22 03:11:52;;;;;;;9.60;4.00;;;;;;;22.01;49.95;99077.67;234178;1199;139033;-62
2022/07/22 03:16:56;;;;;;;9.80;4.20;;;;;;;22.08;49.98;99089.52;234275;1199;139005;-62
2022/07/22 03:21:59;;;;;;;13.00;4.70;;;;;;;22.15;49.96;99104.86;234152;1199;139497;-61
2022/07/22 03:27:03;;;;;;;10.00;4.40;;;;;;;22.22;49.93;99124.59;234159;1199;139879;-61
2022/07/22 03:32:06;;;;;;;9.80;4.60;;;;;;;22.28;49.99;99127.76;234134;1199;139481;-62
2022/07/22 03:37:16;;;;;;;9.00;4.20;;;;;;;22.34;49.97;99123.82;234208;1199;139181;-62
2022/07/22 03:42:20;;;;;;;9.00;3.90;;;;;;;22.39;49.96;99123.96;234119;1199;140544;-62
2022/07/22 03:47:23;;;;;;;9.30;4.80;;;;;;;22.41;49.90;99123.39;234176;1199;140835;-62
2022/07/22 03:52:27;;;;;;;11.30;5.30;;;;;;;22.44;50.14;99121.65;234314;1199;139314;-62
2022/07/22 03:57:30;;;;;;;12.70;6.00;;;;;;;22.51;50.36;99119.98;234042;1199;139676;-60
2022/07/22 04:02:38;;;;;;;12.20;5.80;;;;;;;22.57;50.50;99125.50;234212;1199;142596;-62
2022/07/22 04:07:43;;;;;;;12.60;6.70;;;;;;;22.63;50.74;99121.66;234195;1199;139477;-62
2022/07/22 04:12:46;;;;;;;13.70;7.30;;;;;;;22.73;50.74;99124.94;234151;1199;140262;-64
2022/07/22 04:18:22;;;;;;;16.60;11.00;;;;;;;22.79;51.02;99127.14;234070;1198;139894;-63
2022/07/22 04:23:25;;;;;;;18.60;12.80;;;;;;;22.81;51.20;99127.23;234153;1199;140134;-60
2022/07/22 04:28:36;;;;;;;37.20;27.30;;;;;;;22.77;51.28;99128.60;234297;1199;139759;-59
2022/07/22 04:33:40;;;;;;;13.40;8.40;;;;;;;22.81;51.73;99131.65;234186;1199;139415;-61
2022/07/22 04:38:43;;;;;;;13.90;8.40;;;;;;;22.88;51.98;99129.20;234213;1199;139152;-62
2022/07/22 04:43:46;;;;;;;100.40;77.70;;;;;;;22.95;52.15;99131.95;234161;1199;140007;-62
2022/07/22 04:48:50;;;;;;;15.80;9.40;;;;;;;23.03;52.39;99131.61;234283;1199;139636;-63
2022/07/22 04:53:53;;;;;;;36.80;19.30;;;;;;;23.14;52.61;99130.80;234109;1199;139506;-63
2022/07/22 04:58:57;;;;;;;16.60;8.20;;;;;;;23.20;52.68;99129.80;233392;1199;140007;-62
2022/07/22 05:04:04;;;;;;;15.00;7.60;;;;;;;23.26;52.80;99129.36;234192;1199;139424;-61
2022/07/22 05:09:08;;;;;;;14.30;7.70;;;;;;;23.33;52.89;99124.64;234058;1199;140775;-63
2022/07/22 05:14:11;;;;;;;40.90;31.60;;;;;;;23.43;52.95;99131.53;234149;1199;139766;-62
2022/07/22 05:19:14;;;;;;;13.00;8.30;;;;;;;23.53;53.00;99132.90;234234;1199;140202;-61
2022/07/22 05:24:18;;;;;;;17.70;9.00;;;;;;;23.69;53.04;99129.98;234086;1199;139779;-61
2022/07/22 05:29:22;;;;;;;10.90;8.30;;;;;;;23.88;53.02;99131.27;234159;1199;139141;-61
2022/07/22 05:34:25;;;;;;;14.80;8.80;;;;;;;24.06;52.94;99134.06;234247;1199;139230;-62
2022/07/22 05:39:29;;;;;;;27.30;16.70;;;;;;;24.20;52.66;99136.78;234188;1199;139103;-60
2022/07/22 05:44:32;;;;;;;14.50;8.90;;;;;;;24.29;52.66;99139.43;234095;1199;139601;-61
2022/07/22 05:49:38;;;;;;;14.00;7.60;;;;;;;24.42;52.43;99145.50;234046;1199;139426;-61
2022/07/22 05:54:47;;;;;;;14.70;8.30;;;;;;;24.54;52.40;99140.07;234176;1199;139124;-62
2022/07/22 05:59:50;;;;;;;19.00;8.30;;;;;;;24.65;52.22;99138.38;234139;1199;140691;-63
2022/07/22 06:04:54;;;;;;;17.50;9.10;;;;;;;24.76;51.98;99145.86;234365;1199;139883;-60
2022/07/22 06:09:58;;;;;;;17.40;8.40;;;;;;;24.87;51.83;99144.03;234262;1198;140562;-59
2022/07/22 06:15:05;;;;;;;17.40;8.00;;;;;;;25.01;51.82;99142.20;234206;1199;140001;-62
2022/07/22 06:20:08;;;;;;;13.60;7.60;;;;;;;25.12;51.38;99141.10;234258;1199;139611;-61
2022/07/22 06:25:11;;;;;;;16.10;8.50;;;;;;;25.17;51.02;99147.92;234219;1199;140109;-58
2022/07/22 06:30:35;;;;;;;89.10;75.20;;;;;;;25.18;50.78;99147.23;234128;1199;139124;-61
2022/07/22 06:35:40;;;;;;;14.60;9.80;;;;;;;25.20;50.78;99148.85;234189;1199;142382;-61
2022/07/22 06:40:43;;;;;;;13.20;8.60;;;;;;;25.23;50.51;99153.71;234322;1199;138869;-62
2022/07/22 06:46:07;;;;;;;14.80;8.80;;;;;;;25.22;50.38;99148.17;234217;1199;138916;-62
2022/07/22 06:51:22;;;;;;;;;;;;;;;25.20;50.22;99138.45;234227;1199;139696;-63
2022/07/22 06:56:29;;;;;;;21.50;13.20;;;;;;;25.20;50.19;99142.29;234324;1199;126471;-62
2022/07/22 07:01:33;;;;;;;16.80;9.30;;;;;;;25.21;50.11;99134.34;234183;1199;140080;-59
2022/07/22 07:06:36;;;;;;;21.10;8.50;;;;;;;25.24;50.14;99131.03;234111;1199;139534;-60
2022/07/22 07:11:48;;;;;;;19.70;9.00;;;;;;;25.26;49.88;99137.00;234217;1198;140150;-62
2022/07/22 07:17:06;;;;;;;18.50;9.20;;;;;;;25.27;49.81;99145.84;234337;1199;139734;-59
2022/07/22 07:22:09;;;;;;;16.00;8.50;;;;;;;25.29;49.94;99147.61;234281;1199;139064;-61
2022/07/22 07:27:13;;;;;;;17.80;9.80;;;;;;;25.34;50.13;99149.27;234097;1199;139516;-62
2022/07/22 07:32:17;;;;;;;14.20;9.20;;;;;;;25.41;49.96;99146.10;234125;1199;141576;-61
2022/07/22 07:37:22;;;;;;;18.20;9.50;;;;;;;25.47;50.00;99139.90;234102;1199;139633;-59
2022/07/22 07:42:30;;;;;;;20.00;11.80;;;;;;;25.53;50.02;99126.48;234180;1199;139089;-56
2022/07/22 07:47:34;;;;;;;59.40;43.10;;;;;;;25.62;50.23;99124.25;234204;1199;140111;-57
2022/07/22 07:52:42;;;;;;;16.70;10.60;;;;;;;25.80;50.29;99138.37;234226;1199;140916;-59
2022/07/22 07:57:54;;;;;;;36.70;28.30;;;;;;;25.94;49.90;99141.72;234052;1199;140646;-59
2022/07/22 08:02:59;;;;;;;20.60;12.80;;;;;;;26.05;49.61;99144.31;234087;1199;139866;-62
2022/07/22 08:08:07;;;;;;;16.40;10.20;;;;;;;26.09;49.50;99153.88;234139;1199;139127;-59
2022/07/22 08:13:17;;;;;;;16.90;9.60;;;;;;;26.17;49.32;99155.41;234095;1199;139395;-60
2022/07/22 08:18:40;;;;;;;18.40;10.00;;;;;;;26.32;49.31;99154.19;234125;1199;139495;-61
2022/07/22 08:23:43;;;;;;;27.20;17.00;;;;;;;26.44;49.26;99155.10;234086;1199;140182;-59
2022/07/22 08:28:47;;;;;;;20.10;11.10;;;;;;;26.54;49.24;99157.42;234214;1199;139728;-60
2022/07/22 08:33:51;;;;;;;16.40;10.80;;;;;;;26.64;49.24;99157.31;234144;1199;139363;-59
2022/07/22 08:39:02;;;;;;;19.10;9.80;;;;;;;26.72;49.02;99160.53;234058;1199;139759;-57
2022/07/22 08:44:09;;;;;;;16.60;10.60;;;;;;;26.76;49.05;99164.09;234038;1198;139767;-59
2022/07/22 08:49:16;;;;;;;14.90;10.20;;;;;;;26.74;48.97;99167.52;233954;1199;140699;-59
2022/07/22 08:54:34;;;;;;;21.20;10.00;;;;;;;26.74;48.97;99160.23;234157;1199;139733;-58
2022/07/22 08:59:52;;;;;;;14.80;9.60;;;;;;;26.75;49.07;99167.32;234071;1199;139930;-58
2022/07/22 09:04:56;;;;;;;287.80;237.50;;;;;;;26.81;49.13;99165.99;234198;1199;139763;-60
2022/07/22 09:10:01;;;;;;;21.40;12.60;;;;;;;26.91;49.12;99162.26;234180;1199;140134;-59
2022/07/22 09:15:50;;;;;;;15.70;10.30;;;;;;;26.99;48.95;99166.51;234116;1199;139269;-60
2022/07/22 09:21:23;;;;;;;22.80;10.00;;;;;;;27.03;48.83;99167.60;233918;1199;140093;-58
2022/07/22 09:26:44;;;;;;;24.50;10.50;;;;;;;27.04;48.68;99169.55;234180;1199;139283;-60
2022/07/22 09:32:13;;;;;;;21.20;10.70;;;;;;;27.12;48.87;99166.39;234115;1199;139922;-60
2022/07/22 09:37:55;;;;;;;16.90;11.10;;;;;;;27.31;48.86;99162.74;234173;1199;140125;-60
2022/07/22 09:43:00;;;;;;;18.20;11.10;;;;;;;27.50;48.87;99164.00;234163;1199;138994;-59
2022/07/22 09:48:04;;;;;;;18.00;11.40;;;;;;;27.71;48.85;99162.98;234173;1199;139698;-59
2022/07/22 09:53:22;;;;;;;18.40;11.30;;;;;;;27.98;48.65;99158.25;234087;1199;140297;-60
2022/07/22 09:58:39;;;;;;;24.80;11.00;;;;;;;28.24;48.39;99158.42;234160;1199;139631;-58
2022/07/22 10:03:56;;;;;;;19.30;10.70;;;;;;;28.36;48.14;99159.26;234091;1198;139026;-60
2022/07/22 10:09:00;;;;;;;17.60;10.60;;;;;;;28.42;47.86;99159.00;234126;1198;139644;-60
2022/07/22 10:14:18;;;;;;;196.40;165.40;;;;;;;28.45;47.72;99159.69;234193;1199;142235;-60
2022/07/22 10:19:25;;;;;;;19.30;14.10;;;;;;;28.54;47.67;99153.34;234123;1199;140366;-58
2022/07/22 10:24:28;;;;;;;19.80;11.50;;;;;;;28.69;47.81;99154.62;234082;1199;140147;-60
2022/07/22 10:29:43;;;;;;;21.70;13.50;;;;;;;28.74;47.59;99154.63;234077;1199;140141;-58
2022/07/22 10:34:58;;;;;;;20.80;10.70;;;;;;;28.78;47.42;99154.92;234313;1199;140062;-61
2022/07/22 10:40:14;;;;;;;15.20;10.70;;;;;;;28.82;47.17;99154.80;234006;1199;139682;-59
2022/07/22 10:45:17;;;;;;;74.80;66.30;;;;;;;28.98;47.18;99150.59;234287;1199;139504;-61
2022/07/22 10:50:35;;;;;;;25.40;13.50;;;;;;;29.19;47.39;99147.23;234185;1199;139887;-60
2022/07/22 10:56:04;;;;;;;19.70;12.20;;;;;;;29.36;47.03;99151.58;234234;1199;139666;-61
2022/07/22 11:01:12;;;;;;;20.40;15.30;;;;;;;29.44;46.85;99146.21;234075;1198;139721;-61
2022/07/22 11:06:27;;;;;;;17.90;11.30;;;;;;;29.50;46.67;99141.64;234217;1199;140084;-60
2022/07/22 11:11:43;;;;;;;;;;;;;;;29.51;46.38;99140.19;234081;1199;139050;-60
2022/07/22 11:16:49;;;;;;;16.80;11.50;;;;;;;29.46;46.38;99135.91;234212;1199;125719;-60
2022/07/22 11:21:56;;;;;;;22.90;12.00;;;;;;;29.57;46.56;99130.14;234175;1199;139982;-61
2022/07/22 11:26:59;;;;;;;17.20;11.30;;;;;;;29.82;46.67;99124.63;234202;1199;139564;-60
2022/07/22 11:32:10;;;;;;;18.30;12.30;;;;;;;30.03;46.34;99121.02;234128;1199;139334;-61
2022/07/22 11:37:15;;;;;;;15.60;11.30;;;;;;;30.16;46.12;99119.96;234219;1199;140418;-60
2022/07/22 11:42:18;;;;;;;18.80;11.90;;;;;;;30.36;46.16;99115.67;234075;1199;139399;-60
2022/07/22 11:47:21;;;;;;;15.50;11.90;;;;;;;30.51;45.76;99109.61;234127;1199;140258;-60
2022/07/22 11:52:24;;;;;;;22.10;11.50;;;;;;;30.71;45.57;99106.71;234260;1199;140136;-60
2022/07/22 11:57:27;;;;;;;19.70;11.00;;;;;;;30.84;45.02;99093.92;234106;1199;140396;-61
2022/07/22 12:02:31;;;;;;;16.90;11.40;;;;;;;30.75;44.40;99090.59;233976;1199;139921;-62
2022/07/22 12:07:39;;;;;;;14.50;11.00;;;;;;;30.66;44.41;99088.83;234212;1199;139629;-60
2022/07/22 12:12:42;;;;;;;16.50;11.80;;;;;;;30.80;44.59;99081.06;234171;1199;139766;-60
2022/07/22 12:17:45;;;;;;;18.20;10.70;;;;;;;30.98;44.35;99077.73;234222;1199;139796;-60
2022/07/22 12:22:48;;;;;;;19.00;12.00;;;;;;;31.07;44.09;99069.19;234346;1198;140738;-60
2022/07/22 12:28:01;;;;;;;19.90;12.30;;;;;;;31.34;44.11;99058.09;234155;1199;139850;-60
2022/07/22 12:33:04;;;;;;;15.10;11.40;;;;;;;31.58;43.90;99051.38;234155;1199;139044;-60
2022/07/22 12:38:09;;;;;;;17.50;11.80;;;;;;;31.60;43.44;99047.58;234149;1199;140746;-58
2022/07/22 12:43:12;;;;;;;15.00;10.60;;;;;;;31.45;43.08;99042.81;234198;1199;140148;-60
2022/07/22 12:48:17;;;;;;;15.40;11.10;;;;;;;31.30;43.16;99034.92;234230;1199;140179;-60
2022/07/22 12:53:20;;;;;;;;;;;;;;;31.23;43.21;99034.42;234123;1198;140134;-61
2022/07/22 12:58:26;;;;;;;19.30;11.70;;;;;;;31.38;43.51;99031.59;234397;1198;126078;-61
2022/07/22 13:03:30;;;;;;;15.40;10.70;;;;;;;31.44;43.22;99027.33;234270;1198;139390;-59
2022/07/22 13:08:33;;;;;;;15.70;11.10;;;;;;;31.60;43.13;99026.50;234192;1199;140807;-60
2022/07/22 13:13:48;;;;;;;17.00;11.00;;;;;;;31.92;43.11;99020.64;234187;1199;139786;-60
2022/07/22 13:18:51;;;;;;;16.50;10.70;;;;;;;32.29;42.94;99017.77;234338;1199;140118;-60
2022/07/22 13:23:54;;;;;;;17.60;11.20;;;;;;;32.66;42.70;99015.08;234216;1198;139338;-60
2022/07/22 13:28:57;;;;;;;12.30;9.50;;;;;;;33.04;42.47;99008.02;234357;1199;139213;-61
2022/07/22 13:34:01;;;;;;;15.10;9.90;;;;;;;33.33;41.43;99004.16;234306;1198;139736;-59
2022/07/22 13:39:05;;;;;;;15.20;11.20;;;;;;;33.54;40.95;98999.33;234213;1199;142380;-60
2022/07/22 13:44:08;;;;;;;;;;;;;;;33.71;40.70;98997.41;234316;1199;139938;-60
2022/07/22 13:49:12;;;;;;;16.50;9.70;;;;;;;33.91;40.27;98989.54;234379;1199;125425;-59
2022/07/22 13:54:15;;;;;;;18.90;10.00;;;;;;;34.12;40.09;98985.81;234163;1199;139425;-61
2022/07/22 13:59:18;;;;;;;12.50;9.40;;;;;;;34.29;39.57;98978.69;234197;1199;139875;-59
2022/07/22 14:04:21;;;;;;;15.00;9.50;;;;;;;34.39;39.16;98976.20;234349;1199;139827;-61
2022/07/22 14:09:25;;;;;;;14.30;9.30;;;;;;;34.51;39.25;98968.17;234245;1198;139729;-60
2022/07/22 14:14:43;;;;;;;14.30;9.00;;;;;;;34.61;38.47;98966.84;234145;1199;139602;-60
2022/07/22 14:19:46;;;;;;;10.10;8.80;;;;;;;34.72;38.44;98966.84;234210;1199;138950;-60
2022/07/22 14:24:52;;;;;;;13.50;8.80;;;;;;;34.85;38.43;98965.36;234204;1199;139252;-59
2022/07/22 14:29:55;;;;;;;10.90;7.60;;;;;;;34.98;38.08;98963.65;234152;1199;139430;-60
2022/07/22 14:34:58;;;;;;;10.40;6.90;;;;;;;34.98;37.19;98966.09;234280;1199;139470;-61
2022/07/22 14:40:01;;;;;;;11.00;7.80;;;;;;;34.92;36.80;98965.17;234238;1199;139858;-61
2022/07/22 14:45:06;;;;;;;;;;;;;;;34.86;36.63;98965.66;234149;1199;139474;-59
2022/07/22 14:50:11;;;;;;;12.60;8.90;;;;;;;34.72;36.55;98966.39;234124;1199;126469;-61
2022/07/22 14:55:14;;;;;;;11.00;7.90;;;;;;;34.50;36.66;98967.32;234192;1199;141394;-60
2022/07/22 15:00:17;;;;;;;12.20;8.70;;;;;;;34.21;36.61;98965.62;234151;1199;139288;-60
2022/07/22 15:05:20;;;;;;;13.30;8.30;;;;;;;33.90;36.66;98972.57;234236;1199;139167;-61
2022/07/22 15:10:23;;;;;;;12.90;7.90;;;;;;;33.58;36.68;98974.62;234384;1199;139347;-59
2022/07/22 15:15:26;;;;;;;10.80;7.90;;;;;;;33.33;36.81;98970.26;234097;1199;139156;-60
2022/07/22 15:20:29;;;;;;;12.10;7.70;;;;;;;33.16;36.99;98969.02;234201;1199;139177;-58
2022/07/22 15:25:32;;;;;;;10.10;6.90;;;;;;;33.00;36.90;98967.23;234235;1199;139428;-61
2022/07/22 15:30:35;;;;;;;9.80;7.20;;;;;;;32.89;36.98;98966.78;234172;1198;139639;-61
2022/07/22 15:35:38;;;;;;;13.00;6.80;;;;;;;32.75;36.92;98966.65;234235;1199;140139;-60
2022/07/22 15:40:41;;;;;;;15.00;7.60;;;;;;;32.65;37.16;98964.82;234341;1199;139776;-59
2022/07/22 15:45:44;;;;;;;9.00;6.80;;;;;;;32.57;37.19;98964.67;234227;1198;139179;-59
2022/07/22 15:50:47;;;;;;;10.80;7.30;;;;;;;32.48;37.04;98958.80;234258;1199;139263;-59
2022/07/22 15:55:51;;;;;;;10.50;6.90;;;;;;;32.41;36.97;98954.88;234172;1199;139157;-61
2022/07/22 16:00:54;;;;;;;12.90;6.40;;;;;;;32.38;37.02;98953.08;234264;1199;139617;-60
2022/07/22 16:05:57;;;;;;;8.00;6.40;;;;;;;32.35;36.91;98951.08;234178;1199;138989;-60
2022/07/22 16:11:00;;;;;;;9.60;6.00;;;;;;;32.33;36.71;98943.09;234287;1199;139544;-57
2022/07/22 16:16:03;;;;;;;12.30;6.40;;;;;;;32.32;36.77;98944.83;234117;1199;139227;-61
2022/07/22 16:21:06;;;;;;;13.30;7.40;;;;;;;32.25;36.57;98948.02;234209;1199;140032;-60
2022/07/22 16:26:10;;;;;;;11.80;6.70;;;;;;;32.18;36.54;98948.75;234107;1199;139522;-61
2022/07/22 16:31:13;;;;;;;8.10;6.80;;;;;;;32.12;36.63;98951.01;234123;1199;139146;-60
2022/07/22 16:36:16;;;;;;;12.40;7.20;;;;;;;32.09;36.67;98953.73;234178;1199;139240;-60
2022/07/22 16:41:19;;;;;;;10.10;6.20;;;;;;;32.07;36.92;98954.80;234128;1199;139721;-60
2022/07/22 16:46:22;;;;;;;10.30;6.60;;;;;;;32.04;36.97;98953.01;234330;1199;140121;-59
2022/07/22 16:51:25;;;;;;;8.30;6.80;;;;;;;32.01;37.14;98956.23;234141;1199;139166;-59
2022/07/22 16:56:32;;;;;;;16.10;7.10;;;;;;;31.98;37.23;98956.15;234117;1199;139623;-62
2022/07/22 17:01:35;;;;;;;8.60;6.80;;;;;;;31.95;37.17;98956.52;234191;1199;139193;-60
2022/07/22 17:06:38;;;;;;;10.70;7.60;;;;;;;31.93;37.10;98955.09;234152;1199;138876;-62
2022/07/22 17:11:41;;;;;;;10.40;7.60;;;;;;;31.87;37.32;98959.18;234023;1200;139710;-61
2022/07/22 17:16:44;;;;;;;12.50;7.40;;;;;;;31.77;37.62;98953.00;234219;1199;139792;-59
2022/07/22 17:21:47;;;;;;;12.00;8.40;;;;;;;31.64;38.00;98952.94;234252;1198;139210;-60
2022/07/22 17:26:50;;;;;;;9.90;8.50;;;;;;;31.49;38.19;98953.50;234097;1199;139431;-58
2022/07/22 17:31:53;;;;;;;10.40;8.10;;;;;;;31.34;38.46;98950.17;234168;1199;138962;-59
2022/07/22 17:36:56;;;;;;;9.50;7.70;;;;;;;31.19;38.68;98944.82;234149;1199;139571;-60
2022/07/22 17:42:00;;;;;;;10.70;7.00;;;;;;;31.06;38.67;98941.27;234270;1199;138893;-60
2022/07/22 17:47:03;;;;;;;8.40;6.90;;;;;;;30.99;38.80;98944.13;234223;1199;139771;-61
2022/07/22 17:52:07;;;;;;;12.70;7.00;;;;;;;30.96;38.91;98941.50;234115;1199;139394;-58
2022/07/22 17:57:10;;;;;;;11.20;6.80;;;;;;;30.92;38.91;98943.83;234177;1199;139122;-61
2022/07/22 18:02:13;;;;;;;11.30;7.50;;;;;;;30.89;39.08;98942.14;234198;1199;140775;-60
2022/07/22 18:07:16;;;;;;;14.40;7.50;;;;;;;30.83;38.98;98940.67;234223;1199;139564;-61
2022/07/22 18:12:19;;;;;;;9.40;7.00;;;;;;;30.76;39.18;98938.67;234180;1199;139958;-61
2022/07/22 18:17:22;;;;;;;9.10;7.50;;;;;;;30.69;39.40;98932.42;234127;1199;139550;-60
2022/07/22 18:22:24;;;;;;;9.10;7.40;;;;;;;30.62;39.43;98931.40;234249;1199;139809;-60
2022/07/22 18:27:27;;;;;;;9.00;7.70;;;;;;;30.55;39.78;98930.77;234151;1199;140606;-60
2022/07/22 18:32:32;;;;;;;9.90;8.00;;;;;;;30.50;39.72;98929.80;234162;1199;139170;-61
2022/07/22 18:37:36;;;;;;;13.30;8.10;;;;;;;30.46;39.98;98929.84;234207;1199;139219;-60
2022/07/22 18:42:39;;;;;;;10.60;7.90;;;;;;;30.41;40.02;98934.95;234096;1199;139940;-59
2022/07/22 18:47:42;;;;;;;20.20;13.10;;;;;;;30.36;40.08;98941.96;234106;1199;140098;-60
2022/07/22 18:52:45;;;;;;;19.20;9.00;;;;;;;30.31;40.44;98948.27;234149;1199;139474;-59
2022/07/22 18:57:48;;;;;;;12.60;8.80;;;;;;;30.24;40.86;98948.98;234163;1199;139127;-60
2022/07/22 19:02:51;;;;;;;16.70;9.20;;;;;;;30.16;41.11;98952.52;234124;1198;139777;-60
2022/07/22 19:07:54;;;;;;;23.40;8.70;;;;;;;30.09;41.21;98955.83;234113;1199;138922;-59
2022/07/22 19:12:57;;;;;;;12.40;9.50;;;;;;;30.06;41.24;98966.97;234215;1199;140011;-60
2022/07/22 19:18:00;;;;;;;21.20;9.50;;;;;;;30.01;41.45;98968.17;234081;1199;139430;-60
2022/07/22 19:23:03;;;;;;;13.10;8.80;;;;;;;29.89;41.61;98967.71;234302;1199;138857;-60
2022/07/22 19:28:06;;;;;;;18.40;11.50;;;;;;;29.76;41.72;98965.43;234111;1199;139948;-60
2022/07/22 19:33:09;;;;;;;14.90;9.10;;;;;;;29.67;42.16;98960.18;234181;1199;139303;-59
2022/07/22 19:38:12;;;;;;;16.40;10.00;;;;;;;29.54;42.26;98957.73;234154;1199;139673;-60
2022/07/22 19:43:15;;;;;;;15.90;9.40;;;;;;;29.41;42.41;98958.18;234160;1199;139563;-60
2022/07/22 19:48:18;;;;;;;14.80;9.40;;;;;;;29.29;42.57;98962.52;234129;1199;140019;-60
2022/07/22 19:53:21;;;;;;;16.30;9.30;;;;;;;29.15;42.74;98967.33;234175;1199;141191;-62
2022/07/22 19:58:24;;;;;;;15.70;9.40;;;;;;;29.00;43.14;98970.82;234094;1199;139088;-59
2022/07/22 20:03:27;;;;;;;24.00;9.40;;;;;;;28.89;43.61;98970.46;234192;1199;141027;-61
2022/07/22 20:08:31;;;;;;;20.70;9.70;;;;;;;28.77;43.90;98973.23;234232;1199;140352;-61
2022/07/22 20:13:34;;;;;;;19.70;10.10;;;;;;;28.66;44.17;98973.21;234190;1199;140339;-60
2022/07/22 20:18:37;;;;;;;18.30;10.20;;;;;;;28.56;44.26;98973.57;234160;1199;142342;-59
2022/07/22 20:23:43;;;;;;;16.40;9.70;;;;;;;28.48;44.53;98977.59;234103;1199;139986;-60
2022/07/22 20:28:46;;;;;;;17.70;10.70;;;;;;;28.38;44.80;98977.91;234212;1199;139705;-60
2022/07/22 20:33:49;;;;;;;18.60;10.00;;;;;;;28.27;44.97;98976.05;234118;1199;140059;-59
2022/07/22 20:38:52;;;;;;;18.00;9.80;;;;;;;28.15;45.19;98981.73;234181;1199;139772;-59
2022/07/22 20:43:55;;;;;;;20.70;10.80;;;;;;;28.04;45.48;98979.24;234132;1199;139255;-60
2022/07/22 20:48:58;;;;;;;15.30;10.80;;;;;;;27.93;45.72;98974.21;234120;1199;141721;-59
2022/07/22 20:54:01;;;;;;;15.80;10.60;;;;;;;27.82;46.14;98975.98;234168;1198;139621;-60
2022/07/22 20:59:05;;;;;;;22.40;11.00;;;;;;;27.73;46.23;98977.95;234291;1199;139064;-60
2022/07/22 21:04:08;;;;;;;22.80;11.40;;;;;;;27.61;46.45;98983.94;234229;1199;139610;-59
2022/07/22 21:09:11;;;;;;;15.10;11.00;;;;;;;27.51;46.77;98982.55;234272;1199;139653;-61
2022/07/22 21:14:13;;;;;;;17.00;10.50;;;;;;;27.41;46.94;98983.36;234271;1199;139613;-62
2022/07/22 21:19:17;;;;;;;19.30;11.30;;;;;;;27.31;47.25;98989.02;234164;1198;139706;-61
2022/07/22 21:24:19;;;;;;;17.10;10.20;;;;;;;27.21;47.58;98982.04;234231;1199;139686;-59
2022/07/22 21:29:22;;;;;;;15.60;9.80;;;;;;;27.12;47.63;98983.02;234218;1198;141006;-61
2022/07/22 21:34:25;;;;;;;13.30;9.60;;;;;;;27.09;47.41;98984.85;234284;1199;139795;-60
2022/07/22 21:39:28;;;;;;;13.80;9.60;;;;;;;27.10;47.30;98982.61;234187;1199;138828;-61
2022/07/22 21:44:31;;;;;;;13.70;10.10;;;;;;;27.14;47.02;98983.90;234256;1199;139970;-60
2022/07/22 21:49:34;;;;;;;17.60;10.40;;;;;;;27.16;47.17;98988.14;234288;1199;139766;-60
2022/07/22 21:54:38;;;;;;;14.40;10.00;;;;;;;27.10;47.16;98985.65;234234;1199;140205;-58
2022/07/22 21:59:40;;;;;;;15.00;10.00;;;;;;;27.00;47.36;98981.91;234224;1199;139780;-59
2022/07/22 22:04:43;;;;;;;16.20;10.00;;;;;;;26.87;47.57;98981.17;233596;1199;139772;-61
2022/07/22 22:09:46;;;;;;;14.70;10.10;;;;;;;26.75;47.83;98983.52;234314;1199;139163;-59
2022/07/22 22:14:49;;;;;;;16.20;10.40;;;;;;;26.66;48.19;98989.06;234244;1199;139944;-59
2022/07/22 22:19:52;;;;;;;16.40;10.90;;;;;;;26.56;48.27;98993.98;233988;1199;139781;-60
2022/07/22 22:24:57;;;;;;;16.60;10.10;;;;;;;26.47;48.39;98992.93;234119;1199;139338;-61
2022/07/22 22:30:01;;;;;;;15.30;10.70;;;;;;;26.39;48.44;98994.30;234323;1198;139434;-60
2022/07/22 22:35:04;;;;;;;16.40;10.30;;;;;;;26.31;48.81;98998.05;234341;1199;139868;-61
2022/07/22 22:40:08;;;;;;;20.20;10.90;;;;;;;26.23;48.92;98999.73;234258;1199;139646;-61
2022/07/22 22:45:11;;;;;;;14.40;10.00;;;;;;;26.15;49.19;98999.17;234216;1199;139365;-59
2022/07/22 22:50:14;;;;;;;24.60;11.50;;;;;;;26.08;49.49;99006.66;233861;1199;140593;-58
2022/07/22 22:55:17;;;;;;;14.30;11.00;;;;;;;26.03;49.76;99011.72;234282;1199;139771;-61
2022/07/22 23:00:19;;;;;;;16.50;10.80;;;;;;;25.95;50.11;99009.92;234358;1198;140238;-62
2022/07/22 23:05:22;;;;;;;23.50;11.00;;;;;;;25.86;50.28;99011.61;234209;1199;139546;-61
2022/07/22 23:10:25;;;;;;;17.90;11.10;;;;;;;25.77;50.28;99010.83;234373;1199;139986;-61